createdAt,value
2024-03-13T00:00:36.354Z,33.78
2024-03-13T00:02:38.687Z,35.53
2024-03-13T00:04:44.600Z,34.20
2024-03-13T00:06:47.256Z,37.25
2024-03-13T00:10:51.254Z,36.13
2024-03-13T00:12:52.920Z,35.25
2024-03-13T00:14:54.626Z,36.55
2024-03-13T00:16:56.292Z,34.38
2024-03-13T00:18:57.935Z,33.33
2024-03-13T00:20:59.560Z,34.23
2024-03-13T00:23:02.817Z,36.75
2024-03-13T00:25:05.057Z,34.85
2024-03-13T00:27:07.023Z,40.50
2024-03-13T00:29:09.648Z,40.55
2024-03-13T00:33:13.729Z,40.30
2024-03-13T00:37:17.780Z,36.53
2024-03-13T00:39:19.378Z,36.60
2024-03-13T00:41:20.917Z,35.70
2024-03-13T00:47:45.946Z,36.35
2024-03-13T00:49:47.754Z,35.50
2024-03-13T00:51:50.779Z,37.63
2024-03-13T00:53:52.337Z,39.50
2024-03-13T00:55:56.165Z,35.08
2024-03-13T00:57:57.725Z,36.13
2024-03-13T00:59:59.910Z,37.88
2024-03-13T01:02:03.244Z,36.40
2024-03-13T01:04:04.849Z,38.40
2024-03-13T01:06:07.247Z,38.60
2024-03-13T01:08:08.836Z,41.75
2024-03-13T01:10:10.571Z,37.42
2024-03-13T01:12:12.232Z,38.85
2024-03-13T01:14:15.103Z,39.90
2024-03-13T01:16:17.303Z,37.47
2024-03-13T01:18:20.336Z,36.38
2024-03-13T01:20:21.888Z,40.15
2024-03-13T01:22:24.208Z,42.03
2024-03-13T01:24:27.856Z,39.47
2024-03-13T01:26:35.403Z,35.80
2024-03-13T01:28:38.008Z,38.00
2024-03-13T01:30:41.565Z,40.70
2024-03-13T01:32:45.123Z,39.92
2024-03-13T01:34:47.860Z,36.85
2024-03-13T01:39:10.921Z,38.10
2024-03-13T01:43:51.487Z,39.30
2024-03-13T01:46:17.674Z,37.22
2024-03-13T01:48:38.068Z,34.33
2024-03-13T01:50:58.996Z,34.13
2024-03-13T01:53:19.533Z,39.42
2024-03-13T01:55:30.226Z,35.03
2024-03-13T01:57:33.987Z,37.55
2024-03-13T01:59:39.961Z,36.63
2024-03-13T02:02:00.352Z,35.10
2024-03-13T02:04:02.097Z,36.85
2024-03-13T02:06:05.154Z,36.07
2024-03-13T02:08:07.015Z,36.17
2024-03-13T02:10:08.977Z,36.67
2024-03-13T02:12:11.286Z,37.75
2024-03-13T02:14:15.425Z,38.33
2024-03-13T02:16:17.003Z,37.53
2024-03-13T02:18:20.642Z,38.90
2024-03-13T02:20:25.961Z,38.15
2024-03-13T02:22:27.735Z,36.40
2024-03-13T02:24:29.328Z,34.72
2024-03-13T02:26:30.873Z,35.92
2024-03-13T02:28:33.482Z,35.40
2024-03-13T02:32:36.931Z,32.55
2024-03-13T02:34:42.824Z,37.83
2024-03-13T02:36:44.541Z,37.90
2024-03-13T02:38:47.819Z,38.45
2024-03-13T02:40:49.451Z,40.58
2024-03-13T02:42:54.253Z,37.95
2024-03-13T02:44:55.895Z,35.95
2024-03-13T02:46:57.486Z,38.25
2024-03-13T02:48:58.990Z,36.60
2024-03-13T02:51:00.560Z,35.13
2024-03-13T02:53:02.190Z,34.50
2024-03-13T02:55:04.015Z,35.53
2024-03-13T02:57:05.591Z,37.70
2024-03-13T02:59:07.151Z,33.30
2024-03-13T03:01:08.829Z,33.63
2024-03-13T03:03:13.332Z,37.57
2024-03-13T03:05:15.305Z,36.58
2024-03-13T03:07:17.434Z,36.88
2024-03-13T03:09:18.987Z,37.53
2024-03-13T03:11:20.678Z,34.60
2024-03-13T03:13:22.469Z,35.17
2024-03-13T03:15:25.009Z,36.38
2024-03-13T03:17:26.597Z,41.38
2024-03-13T03:19:28.214Z,36.35
2024-03-13T03:21:29.768Z,39.77
2024-03-13T03:23:31.341Z,41.88
2024-03-13T03:25:32.912Z,39.90
2024-03-13T03:27:35.468Z,41.28
2024-03-13T03:29:38.311Z,39.70
2024-03-13T03:31:40.915Z,40.20
2024-03-13T03:35:45.244Z,39.10
2024-03-13T03:37:47.094Z,40.70
2024-03-13T03:39:49.689Z,41.78
2024-03-13T03:41:51.852Z,37.67
2024-03-13T03:43:53.399Z,36.55
2024-03-13T03:45:55.072Z,40.33
2024-03-13T03:48:01.719Z,38.60
2024-03-13T03:50:09.044Z,40.65
2024-03-13T03:52:10.700Z,37.67
2024-03-13T03:54:12.538Z,38.43
2024-03-13T03:56:14.176Z,38.43
2024-03-13T03:58:15.835Z,42.38
2024-03-13T04:00:17.900Z,36.67
2024-03-13T04:02:20.734Z,36.97
2024-03-13T04:04:22.460Z,38.88
2024-03-13T04:06:24.072Z,37.20
2024-03-13T04:08:25.618Z,35.08
2024-03-13T04:10:27.435Z,35.08
2024-03-13T04:12:29.701Z,37.13
2024-03-13T04:14:31.268Z,38.65
2024-03-13T04:16:32.943Z,37.38
2024-03-13T04:18:35.230Z,38.85
2024-03-13T04:20:36.772Z,35.45
2024-03-13T04:22:39.200Z,38.35
2024-03-13T04:24:40.897Z,36.10
2024-03-13T04:26:42.575Z,36.00
2024-03-13T04:28:44.614Z,39.67
2024-03-13T04:30:52.030Z,42.08
2024-03-13T04:32:54.229Z,42.20
2024-03-13T04:34:55.871Z,41.53
2024-03-13T04:36:57.472Z,39.10
2024-03-13T04:38:59.231Z,40.20
2024-03-13T04:41:00.834Z,39.20
2024-03-13T04:43:02.573Z,37.28
2024-03-13T04:45:04.285Z,34.38
2024-03-13T04:47:06.090Z,41.77
2024-03-13T04:49:12.245Z,43.95
2024-03-13T04:51:16.983Z,39.70
2024-03-13T04:53:24.102Z,44.97
2024-03-13T04:55:27.100Z,43.67
2024-03-13T04:57:28.798Z,42.88
2024-03-13T04:59:30.348Z,44.93
2024-03-13T05:01:32.035Z,42.13
2024-03-13T05:03:35.134Z,41.75
2024-03-13T05:05:36.770Z,47.42
2024-03-13T05:07:39.609Z,44.72
2024-03-13T05:09:46.426Z,45.67
2024-03-13T05:11:48.418Z,41.03
2024-03-13T05:13:50.032Z,35.78
2024-03-13T05:15:53.606Z,36.05
2024-03-13T05:17:57.182Z,37.63
2024-03-13T05:19:59.717Z,39.05
2024-03-13T05:22:01.342Z,36.83
2024-03-13T05:24:04.714Z,36.95
2024-03-13T05:26:07.390Z,40.70
2024-03-13T05:28:08.996Z,35.38
2024-03-13T05:30:11.522Z,38.42
2024-03-13T05:32:13.057Z,36.67
2024-03-13T05:34:14.655Z,36.22
2024-03-13T05:36:16.858Z,38.05
2024-03-13T05:38:18.432Z,33.78
2024-03-13T05:40:21.099Z,36.75
2024-03-13T05:42:23.540Z,36.47
2024-03-13T05:44:25.585Z,35.58
2024-03-13T05:46:27.253Z,36.28
2024-03-13T05:48:28.989Z,35.63
2024-03-13T05:50:30.534Z,35.70
2024-03-13T05:52:32.227Z,36.30
2024-03-13T05:54:34.292Z,35.70
2024-03-13T05:56:35.961Z,33.75
2024-03-13T05:58:37.628Z,37.58
2024-03-13T06:00:42.495Z,33.97
2024-03-13T06:02:44.195Z,37.22
2024-03-13T06:04:46.983Z,35.80
2024-03-13T06:06:52.658Z,47.30
2024-03-13T06:08:54.786Z,43.25
2024-03-13T06:10:56.570Z,39.78
2024-03-13T06:12:58.379Z,37.10
2024-03-13T06:15:00.024Z,39.70
2024-03-13T06:17:02.413Z,45.08
2024-03-13T06:19:04.011Z,52.22
2024-03-13T06:21:06.329Z,49.67
2024-03-13T06:23:08.019Z,45.00
2024-03-13T06:25:10.087Z,45.17
2024-03-13T06:27:16.744Z,42.70
2024-03-13T06:29:37.043Z,46.75
2024-03-13T06:31:39.081Z,44.05
2024-03-13T06:33:40.748Z,42.95
2024-03-13T06:35:42.831Z,38.38
2024-03-13T06:37:44.481Z,39.20
2024-03-13T06:39:46.152Z,40.50
2024-03-13T06:41:48.051Z,40.45
2024-03-13T06:43:49.759Z,39.07
2024-03-13T06:45:52.382Z,39.63
2024-03-13T06:49:55.749Z,39.22
2024-03-13T06:51:57.318Z,41.35
2024-03-13T06:53:58.893Z,43.63
2024-03-13T06:56:00.431Z,45.22
2024-03-13T06:58:03.200Z,42.03
2024-03-13T07:00:04.911Z,44.28
2024-03-13T07:02:07.449Z,38.33
2024-03-13T07:06:13.191Z,38.92
2024-03-13T07:08:14.960Z,41.88
2024-03-13T07:10:17.171Z,39.80
2024-03-13T07:12:18.919Z,40.70
2024-03-13T07:14:20.693Z,38.93
2024-03-13T07:16:22.312Z,38.93
2024-03-13T07:18:23.843Z,37.57
2024-03-13T07:20:25.809Z,39.67
2024-03-13T07:22:27.509Z,38.78
2024-03-13T07:24:29.112Z,39.20
2024-03-13T07:26:33.038Z,43.40
2024-03-13T07:28:34.800Z,41.15
2024-03-13T07:30:36.351Z,38.88
2024-03-13T07:32:38.113Z,36.75
2024-03-13T07:34:39.785Z,35.20
2024-03-13T07:36:41.436Z,35.25
2024-03-13T07:38:42.973Z,35.30
2024-03-13T07:40:44.577Z,35.20
2024-03-13T07:42:47.805Z,39.37
2024-03-13T07:44:51.789Z,39.85
2024-03-13T07:46:53.325Z,42.28
2024-03-13T07:48:54.935Z,51.25
2024-03-13T07:50:56.468Z,45.13
2024-03-13T07:52:58.071Z,45.47
2024-03-13T07:54:59.631Z,51.72
2024-03-13T07:57:01.171Z,49.83
2024-03-13T07:59:03.070Z,46.88
2024-03-13T08:01:06.866Z,49.42
2024-03-13T08:03:08.899Z,47.50
2024-03-13T08:05:11.109Z,54.33
2024-03-13T09:07:39.016Z,28.52
2024-03-13T09:09:40.585Z,27.25
2024-03-13T09:11:44.007Z,30.70
2024-03-13T09:13:45.979Z,28.65
2024-03-13T09:15:47.488Z,28.70
2024-03-13T09:17:49.277Z,29.33
2024-03-13T09:19:53.053Z,27.50
2024-03-13T09:21:54.584Z,29.10
2024-03-13T09:23:56.194Z,31.52
2024-03-13T09:26:01.056Z,31.98
2024-03-13T09:28:02.657Z,29.98
2024-03-13T09:30:07.929Z,30.20
2024-03-13T09:32:10.248Z,26.95
2024-03-13T09:34:11.963Z,25.10
2024-03-13T09:36:14.519Z,24.45
2024-03-13T09:40:19.333Z,22.92
2024-03-13T09:42:24.995Z,24.87
2024-03-13T09:44:27.584Z,24.35
2024-03-13T09:48:31.136Z,21.67
2024-03-13T09:50:40.420Z,24.00
2024-03-13T09:52:49.202Z,22.35
2024-03-13T09:54:51.302Z,17.88
2024-03-13T09:56:52.924Z,18.73
2024-03-13T09:58:56.815Z,17.77
2024-03-13T10:01:01.030Z,18.00
2024-03-13T10:03:08.910Z,18.77
2024-03-13T10:05:13.408Z,19.90
2024-03-13T10:07:20.437Z,20.98
2024-03-13T10:09:24.785Z,16.33
2024-03-13T10:11:27.156Z,11.38
2024-03-13T10:13:29.762Z,10.25
2024-03-13T10:17:35.949Z,12.73
2024-03-13T10:19:44.552Z,14.85
2024-03-13T10:21:47.368Z,13.75
2024-03-13T10:23:51.591Z,13.05
2024-03-13T10:25:55.360Z,13.05
2024-03-13T10:27:57.420Z,11.07
2024-03-13T10:29:59.654Z,11.55
2024-03-13T10:32:01.469Z,8.70
2024-03-13T10:34:03.590Z,9.15
2024-03-13T10:36:05.939Z,7.35
2024-03-13T10:38:12.084Z,5.97
2024-03-13T10:40:15.595Z,8.10
2024-03-13T10:42:19.217Z,9.00
2024-03-13T10:44:22.705Z,5.35
2024-03-13T10:46:24.304Z,5.22
2024-03-13T10:48:26.066Z,5.50
2024-03-13T10:50:30.063Z,4.82
2024-03-13T10:52:31.811Z,7.35
2024-03-13T10:54:33.369Z,4.68
2024-03-13T10:56:34.975Z,5.70
2024-03-13T10:58:37.330Z,9.40
2024-03-13T11:00:41.734Z,8.07
2024-03-13T11:02:43.323Z,9.50
2024-03-13T11:04:45.889Z,7.37
2024-03-13T11:08:49.329Z,8.32
2024-03-13T11:11:02.159Z,10.13
2024-03-13T11:13:12.491Z,10.90
2024-03-13T11:15:17.649Z,12.02
2024-03-13T11:17:22.797Z,11.65
2024-03-13T11:19:25.356Z,17.33
2024-03-13T11:23:30.614Z,13.80
2024-03-13T11:25:32.701Z,12.32
2024-03-13T11:27:34.906Z,10.82
2024-03-13T11:29:44.735Z,10.20
2024-03-13T11:31:49.766Z,9.52
2024-03-13T11:33:53.871Z,9.95
2024-03-13T11:35:55.950Z,9.05
2024-03-13T11:38:02.815Z,9.57
2024-03-13T11:40:04.919Z,10.93
2024-03-13T11:42:18.935Z,12.00
2024-03-13T11:44:20.752Z,11.77
2024-03-13T11:46:24.346Z,11.10
2024-03-13T11:48:26.285Z,11.90
2024-03-13T11:50:30.124Z,8.35
2024-03-13T11:52:32.309Z,8.65
2024-03-13T11:54:34.178Z,9.30
2024-03-13T11:56:35.991Z,9.82
2024-03-13T11:58:40.107Z,8.97
2024-03-13T12:00:41.750Z,8.00
2024-03-13T12:02:46.667Z,4.77
2024-03-13T12:04:50.838Z,4.82
2024-03-13T12:06:54.625Z,5.15
2024-03-13T12:08:56.847Z,4.38
2024-03-13T12:10:58.807Z,5.40
2024-03-13T12:13:00.668Z,4.72
2024-03-13T12:15:05.581Z,4.40
2024-03-13T12:17:11.271Z,4.30
2024-03-13T12:19:16.084Z,3.05
2024-03-13T12:21:18.245Z,4.45
2024-03-13T12:23:19.925Z,4.65
2024-03-13T12:25:21.533Z,4.78
2024-03-13T12:27:23.321Z,4.57
2024-03-13T12:29:27.508Z,4.63
2024-03-13T12:31:29.051Z,4.70
2024-03-13T12:33:30.694Z,4.10
2024-03-13T12:35:34.633Z,3.53
2024-03-13T12:37:38.643Z,4.25
2024-03-13T12:39:41.715Z,4.72
2024-03-13T12:41:43.773Z,4.40
2024-03-13T12:43:46.318Z,4.35
2024-03-13T12:45:48.151Z,4.43
2024-03-13T12:47:51.706Z,5.70
2024-03-13T12:49:54.606Z,6.90
2024-03-13T12:51:56.287Z,5.93
2024-03-13T12:54:10.387Z,6.47
2024-03-13T12:56:18.108Z,5.75
2024-03-13T12:58:21.563Z,6.60
2024-03-13T13:00:23.230Z,7.57
2024-03-13T13:02:26.543Z,6.63
2024-03-13T13:04:28.266Z,7.80
2024-03-13T13:06:31.332Z,7.20
2024-03-13T13:08:33.755Z,7.07
2024-03-13T13:12:39.621Z,7.90
2024-03-13T13:14:41.580Z,5.63
2024-03-13T13:16:44.833Z,6.50
2024-03-13T13:18:47.641Z,6.13
2024-03-13T13:20:49.639Z,8.20
2024-03-13T13:22:53.075Z,5.85
2024-03-13T13:24:54.736Z,5.68
2024-03-13T13:26:57.095Z,4.67
2024-03-13T13:31:03.301Z,4.75
2024-03-13T13:33:05.982Z,5.90
2024-03-13T13:35:07.992Z,4.25
2024-03-13T13:37:10.310Z,4.97
2024-03-13T13:39:11.925Z,5.18
2024-03-13T13:41:13.504Z,4.88
2024-03-13T13:43:17.159Z,4.23
2024-03-13T13:45:22.443Z,4.90
2024-03-13T13:47:24.568Z,4.45
2024-03-13T13:49:26.121Z,3.20
2024-03-13T13:51:27.846Z,2.83
2024-03-13T13:53:31.638Z,3.15
2024-03-13T13:55:33.220Z,2.50
2024-03-13T13:57:43.602Z,3.10
2024-03-13T13:59:53.495Z,2.67
2024-03-13T14:01:56.630Z,2.65
2024-03-13T14:03:58.463Z,3.00
2024-03-13T14:06:04.143Z,2.50
2024-03-13T14:08:07.857Z,2.97
2024-03-13T14:10:13.250Z,2.78
2024-03-13T14:12:23.778Z,3.03
2024-03-13T14:14:25.850Z,3.63
2024-03-13T14:16:27.408Z,3.25
2024-03-13T14:18:29.036Z,3.40
2024-03-13T14:20:31.630Z,3.45
2024-03-13T14:22:33.322Z,2.33
2024-03-13T14:24:34.933Z,3.50
2024-03-13T14:26:37.931Z,2.60
2024-03-13T14:28:40.729Z,4.40
2024-03-13T14:30:44.588Z,3.58
2024-03-13T14:32:46.308Z,2.30
2024-03-13T14:34:54.962Z,2.28
2024-03-13T14:37:01.654Z,2.85
2024-03-13T14:41:08.771Z,5.30
2024-03-13T14:43:10.698Z,13.98
2024-03-13T14:45:14.966Z,5.47
2024-03-13T14:47:19.183Z,2.92
2024-03-13T14:49:20.908Z,5.93
2024-03-13T14:51:23.020Z,3.75
2024-03-13T14:53:24.632Z,2.47
2024-03-13T14:55:27.894Z,2.87
2024-03-13T14:57:31.781Z,2.60
2024-03-13T14:59:33.372Z,2.08
2024-03-13T15:01:41.946Z,2.47
2024-03-13T15:04:05.364Z,3.38
2024-03-13T15:06:27.089Z,2.80
2024-03-13T15:08:51.777Z,2.20
2024-03-13T15:11:16.536Z,2.90
2024-03-13T15:13:42.241Z,2.10
2024-03-13T15:16:06.890Z,3.10
2024-03-13T15:18:27.191Z,3.75
2024-03-13T15:20:50.348Z,2.50
2024-03-13T15:23:15.090Z,4.00
2024-03-13T15:25:36.643Z,4.43
2024-03-13T15:27:58.137Z,3.60
2024-03-13T15:30:20.425Z,3.63
2024-03-13T15:32:45.716Z,2.92
2024-03-13T15:35:07.474Z,3.50
2024-03-13T15:37:28.967Z,3.67
2024-03-13T15:39:50.651Z,3.08
2024-03-13T15:42:14.773Z,2.92
2024-03-13T15:44:38.462Z,3.40
2024-03-13T15:47:00.060Z,4.03
2024-03-13T15:49:21.898Z,5.13
2024-03-13T15:51:43.475Z,3.92
2024-03-13T15:54:06.502Z,3.10
2024-03-13T15:56:33.374Z,2.65
2024-03-13T15:58:54.894Z,3.08
2024-03-13T16:01:18.946Z,3.42
2024-03-13T16:03:45.586Z,2.67
2024-03-13T16:06:07.266Z,3.00
2024-03-13T16:08:42.774Z,3.78
2024-03-13T16:11:06.215Z,4.88
2024-03-13T16:13:29.457Z,4.15
2024-03-13T16:15:51.001Z,4.50
2024-03-13T16:18:12.623Z,3.90
2024-03-13T16:20:35.555Z,3.78
2024-03-13T16:25:23.867Z,5.10
2024-03-13T16:27:45.454Z,5.22
2024-03-13T16:30:07.410Z,6.57
2024-03-13T16:32:28.968Z,6.20
2024-03-13T16:34:55.846Z,4.57
2024-03-13T16:37:19.144Z,3.35
2024-03-13T16:39:40.708Z,3.30
2024-03-13T16:42:02.348Z,5.72
2024-03-13T16:44:26.382Z,4.63
2024-03-13T16:46:34.686Z,4.93
2024-03-13T16:48:39.259Z,5.90
2024-03-13T16:50:52.519Z,5.35
2024-03-13T16:52:54.405Z,5.75
2024-03-13T16:54:55.929Z,4.95
2024-03-13T16:56:57.936Z,5.57
2024-03-13T16:58:59.481Z,5.28
2024-03-13T17:01:01.490Z,6.80
2024-03-13T17:03:04.146Z,6.30
2024-03-13T17:05:10.132Z,4.22
2024-03-13T17:07:15.662Z,3.70
2024-03-13T17:09:22.014Z,4.07
2024-03-13T17:11:26.157Z,3.90
2024-03-13T17:13:31.407Z,6.07
2024-03-13T17:15:33.081Z,5.40
2024-03-13T17:17:36.905Z,12.10
2024-03-13T17:19:38.990Z,11.40
2024-03-13T17:21:40.665Z,5.65
2024-03-13T17:23:44.827Z,6.75
2024-03-13T17:25:46.512Z,7.20
2024-03-13T17:27:48.316Z,6.45
2024-03-13T17:29:52.354Z,5.70
2024-03-13T17:31:58.405Z,6.10
2024-03-13T17:34:00.049Z,5.60
2024-03-13T17:36:10.564Z,5.90
2024-03-13T17:38:17.440Z,4.10
2024-03-13T17:40:21.406Z,4.13
2024-03-13T17:42:23.577Z,4.53
2024-03-13T17:44:25.625Z,13.45
2024-03-13T17:46:27.895Z,9.27
2024-03-13T17:48:32.449Z,15.68
2024-03-13T17:50:39.668Z,6.05
2024-03-13T17:52:42.207Z,7.80
2024-03-13T17:56:48.349Z,29.02
2024-03-13T17:58:50.231Z,16.17
2024-03-13T18:00:51.828Z,11.52
2024-03-13T18:02:56.284Z,10.52
2024-03-13T18:05:00.462Z,7.22
2024-03-13T18:07:04.451Z,7.25
2024-03-13T18:09:06.361Z,8.07
2024-03-13T18:11:13.550Z,9.23
2024-03-13T18:13:15.163Z,8.85
2024-03-13T18:15:19.293Z,10.63
2024-03-13T18:17:20.972Z,12.35
2024-03-13T18:19:24.963Z,10.73
2024-03-13T18:21:31.199Z,15.90
2024-03-13T18:23:33.709Z,15.25
2024-03-13T18:27:39.337Z,13.25
2024-03-13T18:29:46.583Z,13.73
2024-03-13T18:31:51.336Z,15.23
2024-03-13T18:33:58.039Z,14.18
2024-03-13T18:36:04.636Z,16.70
2024-03-13T18:38:08.501Z,14.60
2024-03-13T18:40:21.853Z,13.38
2024-03-13T18:42:23.583Z,14.45
2024-03-13T18:44:31.711Z,12.57
2024-03-13T18:46:33.548Z,10.50
2024-03-13T18:48:35.212Z,11.77
2024-03-13T18:50:39.458Z,20.92
2024-03-13T18:52:43.401Z,13.80
2024-03-13T18:54:45.942Z,16.58
2024-03-13T18:58:52.691Z,20.27
2024-03-13T19:00:54.253Z,19.02
2024-03-13T19:02:59.755Z,14.57
2024-03-13T19:05:06.768Z,16.08
2024-03-13T19:07:15.716Z,16.02
2024-03-13T19:09:23.236Z,28.93
2024-03-13T19:11:25.863Z,29.95
2024-03-13T19:13:27.879Z,43.83
2024-03-13T19:15:34.978Z,51.13
2024-03-13T19:17:42.827Z,27.83
2024-03-13T19:19:50.100Z,21.52
2024-03-13T19:21:55.094Z,19.80
2024-03-13T19:23:57.531Z,16.45
2024-03-13T19:28:07.429Z,22.20
2024-03-13T19:30:11.115Z,23.23
2024-03-13T19:32:12.797Z,23.80
2024-03-13T19:34:18.413Z,21.70
2024-03-13T19:36:22.103Z,27.20
2024-03-13T19:38:24.828Z,30.77
2024-03-13T19:40:26.487Z,41.03
2024-03-13T19:42:35.953Z,48.57
2024-03-13T19:44:40.123Z,46.30
2024-03-13T19:46:43.862Z,46.08
2024-03-13T19:48:47.506Z,39.55
2024-03-13T19:50:49.974Z,40.42
2024-03-13T19:52:51.596Z,37.20
2024-03-13T19:54:55.863Z,50.97
2024-03-13T19:57:03.617Z,55.78
2024-03-13T19:59:05.254Z,40.80
2024-03-13T20:01:10.796Z,48.63
2024-03-13T20:03:18.143Z,21.38
2024-03-13T20:05:19.839Z,20.35
2024-03-13T20:07:21.638Z,20.05
2024-03-13T20:09:23.612Z,18.42
2024-03-13T20:11:32.761Z,24.30
2024-03-13T20:13:42.547Z,24.67
2024-03-13T20:15:46.542Z,21.77
2024-03-13T20:18:02.463Z,19.75
2024-03-13T20:20:06.696Z,19.20
2024-03-13T20:22:08.500Z,19.80
2024-03-13T20:24:11.146Z,16.10
2024-03-13T20:26:15.237Z,15.40
2024-03-13T20:28:19.369Z,17.38
2024-03-13T20:30:24.018Z,16.40
2024-03-13T20:32:25.597Z,16.02
2024-03-13T20:34:32.135Z,26.37
2024-03-13T20:36:36.972Z,31.80
2024-03-13T20:38:41.270Z,33.80
2024-03-13T20:40:45.704Z,38.80
2024-03-13T20:42:49.685Z,49.78
2024-03-13T20:44:52.514Z,47.80
2024-03-13T20:46:54.132Z,53.20
2024-03-13T20:48:58.057Z,54.23
2024-03-13T20:51:05.037Z,46.42
2024-03-13T20:53:07.090Z,38.85
2024-03-13T20:55:10.089Z,35.03
2024-03-13T20:57:14.464Z,34.88
2024-03-13T20:59:16.983Z,33.10
2024-03-13T21:01:21.833Z,28.02
2024-03-13T21:03:25.663Z,28.50
2024-03-13T21:05:27.371Z,30.23
2024-03-13T21:07:29.317Z,30.30
2024-03-13T21:09:33.047Z,36.90
2024-03-13T21:11:34.713Z,37.88
2024-03-13T21:13:37.663Z,37.60
2024-03-13T21:15:46.410Z,37.58
2024-03-13T21:17:58.201Z,39.33
2024-03-13T21:19:59.954Z,39.10
2024-03-13T21:22:01.529Z,37.92
2024-03-13T21:24:03.238Z,38.13
2024-03-13T21:26:11.114Z,30.23
2024-03-13T21:28:12.825Z,32.22
2024-03-13T21:30:16.316Z,29.47
2024-03-13T21:32:20.650Z,29.63
2024-03-13T21:34:35.155Z,29.90
2024-03-13T21:36:40.279Z,30.92
2024-03-13T21:38:43.363Z,29.43
2024-03-13T21:40:47.526Z,31.40
2024-03-13T21:42:49.976Z,37.90
2024-03-13T21:44:52.121Z,33.10
2024-03-13T21:46:56.130Z,31.90
2024-03-13T21:48:57.766Z,32.17
2024-03-13T21:51:02.122Z,31.92
2024-03-13T21:53:05.908Z,33.30
2024-03-13T21:55:09.253Z,32.22
2024-03-13T21:57:13.460Z,34.28
2024-03-13T21:59:15.083Z,30.20
2024-03-13T22:01:18.451Z,32.20
2024-03-13T22:03:21.607Z,31.40
2024-03-13T22:05:23.242Z,32.00
2024-03-13T22:07:25.385Z,33.17
2024-03-13T22:09:27.218Z,29.23
2024-03-13T22:11:28.825Z,28.42
2024-03-13T22:13:31.400Z,25.83
2024-03-13T22:17:40.463Z,35.10
2024-03-13T22:19:43.702Z,35.90
2024-03-13T22:21:47.732Z,35.70
2024-03-13T22:23:49.754Z,33.80
2024-03-13T22:25:51.281Z,37.40
2024-03-13T22:27:55.370Z,36.47
2024-03-13T22:29:57.371Z,31.55
2024-03-13T22:32:01.118Z,35.50
2024-03-13T22:34:04.171Z,35.90
2024-03-13T22:36:08.175Z,32.33
2024-03-13T22:38:12.191Z,36.45
2024-03-13T22:40:24.464Z,33.85
2024-03-13T22:42:26.379Z,43.47
2024-03-13T22:44:28.057Z,40.75
2024-03-13T22:46:31.993Z,38.60
2024-03-13T22:48:34.473Z,37.72
2024-03-13T22:52:37.746Z,36.97
2024-03-13T22:54:39.861Z,37.20
2024-03-13T22:56:41.439Z,36.47
2024-03-13T22:58:42.955Z,36.00
2024-03-13T23:00:45.334Z,34.70
2024-03-13T23:02:47.015Z,34.58
2024-03-13T23:04:48.669Z,38.37
2024-03-13T23:06:50.429Z,35.00
2024-03-13T23:08:57.115Z,35.88
2024-03-13T23:11:04.095Z,34.70
2024-03-13T23:13:05.689Z,31.05
2024-03-13T23:15:08.038Z,34.47
2024-03-13T23:17:13.015Z,34.15
2024-03-13T23:19:23.579Z,36.20
2024-03-13T23:21:28.098Z,36.30
2024-03-13T23:23:29.744Z,38.03
2024-03-13T23:25:31.280Z,38.80
2024-03-13T23:27:34.643Z,37.25
2024-03-13T23:29:38.129Z,39.05
2024-03-13T23:31:44.119Z,36.05
2024-03-13T23:33:45.842Z,37.22
2024-03-13T23:35:49.971Z,36.03
2024-03-13T23:37:51.611Z,36.90
2024-03-13T23:39:56.753Z,34.73
2024-03-13T23:42:00.760Z,39.15
2024-03-13T23:44:03.803Z,38.30
2024-03-13T23:46:08.009Z,37.58
2024-03-13T23:48:14.272Z,37.33
2024-03-13T23:50:17.150Z,36.50
2024-03-13T23:52:21.120Z,36.55
2024-03-13T23:54:22.833Z,35.13
2024-03-13T23:56:24.466Z,34.80
2024-03-13T23:58:27.417Z,36.38
